Time;durP1;ratioP1;P1;durP2;ratioP2;P2;SDS_P1;SDS_P2;PMS_P1;PMS_P2;Temp;Humidity;BMP_temperature;BMP_pressure;BME280_temperature;BME280_humidity;BME280_pressure;Samples;Min_cycle;Max_cycle;Signal;HPM_P1;HPM_P2
2022/11/02 00:01:19;;;;;;;0.80;0.80;;;;;;;;;;5039906;28;20233;-78
2022/11/02 00:03:45;;;;;;;0.60;0.60;;;;;;;;;;5039760;28;20196;-79
2022/11/02 00:06:11;;;;;;;0.60;0.60;;;;;;;;;;5039084;28;20176;-78
2022/11/02 00:08:37;;;;;;;0.60;0.60;;;;;;;;;;5039181;28;20184;-79
2022/11/02 00:11:03;;;;;;;0.60;0.60;;;;;;;;;;5037447;28;20199;-79
2022/11/02 00:13:29;;;;;;;0.67;0.67;;;;;;;;;;5037671;28;20225;-78
2022/11/02 00:15:55;;;;;;;0.70;0.70;;;;;;;;;;5035163;28;20176;-78
2022/11/02 00:18:21;;;;;;;0.70;0.70;;;;;;;;;;5033468;28;20188;-78
2022/11/02 00:20:47;;;;;;;0.60;0.60;;;;;;;;;;5015263;28;20236;-78
2022/11/02 00:23:14;;;;;;;0.70;0.70;;;;;;;;;;5035199;28;20245;-79
2022/11/02 00:25:41;;;;;;;0.60;0.60;;;;;;;;;;5036742;28;20517;-78
2022/11/02 00:28:07;;;;;;;0.70;0.70;;;;;;;;;;5036023;28;20589;-79
2022/11/02 00:30:33;;;;;;;0.60;0.60;;;;;;;;;;5035570;28;20218;-78
2022/11/02 00:32:59;;;;;;;0.73;0.73;;;;;;;;;;5036457;28;20559;-78
2022/11/02 00:35:25;;;;;;;0.70;0.70;;;;;;;;;;5035675;28;20243;-78
2022/11/02 00:37:51;;;;;;;0.53;0.53;;;;;;;;;;5035890;28;20233;-79
2022/11/02 00:40:17;;;;;;;0.60;0.60;;;;;;;;;;5033597;28;20202;-78
2022/11/02 00:42:43;;;;;;;0.70;0.70;;;;;;;;;;5032773;28;20212;-78
2022/11/02 00:45:09;;;;;;;0.80;0.80;;;;;;;;;;5030168;28;20184;-77
2022/11/02 00:47:35;;;;;;;0.60;0.60;;;;;;;;;;5031600;28;20180;-78
2022/11/02 00:50:01;;;;;;;0.67;0.67;;;;;;;;;;5032209;28;20545;-77
2022/11/02 00:52:27;;;;;;;0.63;0.63;;;;;;;;;;5035921;28;20252;-78
2022/11/02 00:54:53;;;;;;;0.73;0.73;;;;;;;;;;5030692;28;20175;-78
2022/11/02 00:57:19;;;;;;;0.60;0.60;;;;;;;;;;5030526;28;20913;-78
2022/11/02 00:59:45;;;;;;;0.77;0.77;;;;;;;;;;5030514;28;20561;-77
2022/11/02 01:02:11;;;;;;;0.70;0.70;;;;;;;;;;5030246;28;20215;-78
2022/11/02 01:04:37;;;;;;;0.80;0.80;;;;;;;;;;5030840;28;20219;-77
2022/11/02 01:07:03;;;;;;;0.70;0.70;;;;;;;;;;5031566;28;20201;-78
2022/11/02 01:09:29;;;;;;;0.63;0.63;;;;;;;;;;5031269;28;20225;-78
2022/11/02 01:11:55;;;;;;;0.77;0.77;;;;;;;;;;5031428;28;20204;-78
2022/11/02 01:14:21;;;;;;;0.67;0.67;;;;;;;;;;5030916;28;20229;-78
2022/11/02 01:16:47;;;;;;;0.70;0.70;;;;;;;;;;5030189;28;20233;-77
2022/11/02 01:19:13;;;;;;;0.70;0.70;;;;;;;;;;5030464;28;20187;-79
2022/11/02 01:21:39;;;;;;;0.77;0.77;;;;;;;;;;5031940;28;20243;-79
2022/11/02 01:24:06;;;;;;;0.60;0.60;;;;;;;;;;5038975;28;20176;-79
2022/11/02 01:26:32;;;;;;;0.70;0.70;;;;;;;;;;5041548;28;20203;-78
2022/11/02 01:28:58;;;;;;;0.67;0.67;;;;;;;;;;5040211;28;20252;-79
2022/11/02 01:31:24;;;;;;;0.70;0.70;;;;;;;;;;5039368;28;20204;-79
2022/11/02 01:33:50;;;;;;;0.70;0.70;;;;;;;;;;5040762;28;20180;-78
2022/11/02 01:36:19;;;;;;;0.63;0.63;;;;;;;;;;5041742;28;20247;-79
2022/11/02 01:38:46;;;;;;;0.70;0.70;;;;;;;;;;5034464;28;20192;-79
2022/11/02 01:41:12;;;;;;;0.70;0.70;;;;;;;;;;5033683;28;20200;-79
2022/11/02 01:43:40;;;;;;;0.80;0.80;;;;;;;;;;5032840;28;20179;-78
2022/11/02 01:46:14;;;;;;;0.73;0.73;;;;;;;;;;5032356;28;20211;-79
2022/11/02 01:48:42;;;;;;;0.70;0.70;;;;;;;;;;5032351;28;20222;-79
2022/11/02 01:51:21;;;;;;;0.80;0.80;;;;;;;;;;5032023;28;20260;-79
2022/11/02 01:53:48;;;;;;;0.60;0.60;;;;;;;;;;5033107;28;20184;-80
2022/11/02 01:56:15;;;;;;;0.70;0.70;;;;;;;;;;5032472;28;20184;-79
2022/11/02 01:58:44;;;;;;;0.70;0.70;;;;;;;;;;5032931;28;20225;-78
2022/11/02 02:01:10;;;;;;;0.80;0.80;;;;;;;;;;5032517;28;20208;-79
2022/11/02 02:03:36;;;;;;;0.60;0.60;;;;;;;;;;5033209;28;20180;-79
2022/11/02 02:06:04;;;;;;;0.73;0.73;;;;;;;;;;5033238;28;20200;-80
2022/11/02 02:08:31;;;;;;;0.70;0.70;;;;;;;;;;5032936;28;20210;-80
2022/11/02 02:10:57;;;;;;;0.70;0.70;;;;;;;;;;5033535;28;20235;-79
2022/11/02 02:13:25;;;;;;;0.73;0.73;;;;;;;;;;5034007;28;20184;-78
2022/11/02 02:15:54;;;;;;;0.70;0.70;;;;;;;;;;5035173;28;20183;-79
2022/11/02 02:18:23;;;;;;;0.70;0.70;;;;;;;;;;5035515;28;20172;-79
2022/11/02 02:21:03;;;;;;;0.70;0.70;;;;;;;;;;5035449;28;20210;-78
2022/11/02 02:23:32;;;;;;;0.60;0.60;;;;;;;;;;5037759;28;20191;-78
2022/11/02 02:25:58;;;;;;;0.60;0.60;;;;;;;;;;5036588;28;20202;-78
2022/11/02 02:28:46;;;;;;;0.70;0.70;;;;;;;;;;5019346;28;20184;-78
2022/11/02 02:31:17;;;;;;;0.77;0.77;;;;;;;;;;5044258;28;20208;-79
2022/11/02 02:33:45;;;;;;;0.70;0.70;;;;;;;;;;5038766;28;20186;-78
2022/11/02 02:36:30;;;;;;;0.53;0.53;;;;;;;;;;5043902;28;20187;-78
2022/11/02 02:38:56;;;;;;;0.70;0.70;;;;;;;;;;5036764;28;20215;-78
2022/11/02 02:41:24;;;;;;;0.67;0.67;;;;;;;;;;5030109;28;20720;-78
2022/11/02 02:43:53;;;;;;;0.70;0.70;;;;;;;;;;5033688;28;20275;-79
2022/11/02 02:46:21;;;;;;;0.60;0.60;;;;;;;;;;5034756;28;20183;-79
2022/11/02 02:48:47;;;;;;;0.60;0.60;;;;;;;;;;5034702;28;20191;-79
2022/11/02 02:51:32;;;;;;;0.60;0.60;;;;;;;;;;5034594;28;20192;-79
2022/11/02 02:54:07;;;;;;;0.60;0.60;;;;;;;;;;5033993;28;20248;-78
2022/11/02 02:56:38;;;;;;;0.70;0.70;;;;;;;;;;5032675;28;20168;-79
2022/11/02 02:59:05;;;;;;;0.80;0.80;;;;;;;;;;5034255;28;20198;-80
2022/11/02 03:01:32;;;;;;;0.67;0.67;;;;;;;;;;5033457;28;20211;-80
2022/11/02 03:03:57;;;;;;;0.70;0.70;;;;;;;;;;5034674;28;20172;-79
2022/11/02 03:06:23;;;;;;;0.60;0.60;;;;;;;;;;5034462;28;20215;-79
2022/11/02 03:08:59;;;;;;;0.67;0.67;;;;;;;;;;5034240;28;20183;-80
2022/11/02 03:11:25;;;;;;;0.70;0.70;;;;;;;;;;5035879;28;20206;-80
2022/11/02 03:14:00;;;;;;;0.70;0.70;;;;;;;;;;5036928;28;20209;-79
2022/11/02 03:16:29;;;;;;;0.63;0.63;;;;;;;;;;5033952;28;20193;-77
2022/11/02 03:19:08;;;;;;;0.60;0.60;;;;;;;;;;5033327;28;20680;-79
2022/11/02 03:21:40;;;;;;;0.70;0.70;;;;;;;;;;5033689;28;20221;-80
2022/11/02 03:24:29;;;;;;;0.60;0.60;;;;;;;;;;5033394;28;20179;-78
2022/11/02 03:27:14;;;;;;;0.57;0.57;;;;;;;;;;5022129;28;20194;-78
2022/11/02 03:29:58;;;;;;;0.60;0.60;;;;;;;;;;5031027;28;20172;-78
2022/11/02 03:32:33;;;;;;;0.73;0.73;;;;;;;;;;5031542;28;20283;-77
2022/11/02 03:35:02;;;;;;;0.70;0.70;;;;;;;;;;5032848;28;20232;-78
2022/11/02 03:37:34;;;;;;;0.73;0.73;;;;;;;;;;5032512;28;20196;-78
2022/11/02 03:40:13;;;;;;;0.60;0.60;;;;;;;;;;5032949;28;20179;-79
2022/11/02 03:42:39;;;;;;;0.60;0.60;;;;;;;;;;5033742;28;20215;-79
2022/11/02 03:45:26;;;;;;;0.70;0.70;;;;;;;;;;5032464;28;20234;-79
2022/11/02 03:47:55;;;;;;;0.70;0.70;;;;;;;;;;5032042;28;20232;-79
2022/11/02 03:50:22;;;;;;;0.70;0.70;;;;;;;;;;5031091;28;20202;-79
2022/11/02 03:52:49;;;;;;;0.60;0.60;;;;;;;;;;5031929;28;20176;-79
2022/11/02 03:55:19;;;;;;;0.67;0.67;;;;;;;;;;5031668;28;20275;-78
2022/11/02 03:57:46;;;;;;;0.57;0.57;;;;;;;;;;5031285;28;20697;-79
2022/11/02 04:00:14;;;;;;;0.60;0.60;;;;;;;;;;5031249;28;20180;-79
2022/11/02 04:02:42;;;;;;;0.60;0.60;;;;;;;;;;5040459;28;20243;-78
2022/11/02 04:05:08;;;;;;;0.60;0.60;;;;;;;;;;5042940;28;20176;-78
2022/11/02 04:10:20;;;;;;;0.63;0.63;;;;;;;;;;5037664;28;20207;-78
2022/11/02 04:15:31;;;;;;;0.70;0.70;;;;;;;;;;5031816;28;20337;-78
2022/11/02 04:20:41;;;;;;;0.60;0.60;;;;;;;;;;5034610;28;20288;-79
2022/11/02 04:25:52;;;;;;;0.63;0.63;;;;;;;;;;5034393;28;20191;-78
2022/11/02 04:28:18;;;;;;;0.70;0.70;;;;;;;;;;5034537;28;20173;-79
2022/11/02 04:30:44;;;;;;;0.80;0.80;;;;;;;;;;5034413;28;20207;-78
2022/11/02 04:35:55;;;;;;;0.53;0.53;;;;;;;;;;5035695;28;20198;-79
2022/11/02 04:38:39;;;;;;;0.70;0.70;;;;;;;;;;5035310;28;20259;-78
2022/11/02 04:43:49;;;;;;;0.70;0.70;;;;;;;;;;5021565;28;20187;-79
2022/11/02 04:46:15;;;;;;;0.63;0.63;;;;;;;;;;5035744;28;20176;-79
2022/11/02 04:48:41;;;;;;;0.70;0.70;;;;;;;;;;5033242;28;20215;-78
2022/11/02 04:51:07;;;;;;;0.60;0.60;;;;;;;;;;5031312;28;20262;-78
2022/11/02 04:53:34;;;;;;;0.60;0.60;;;;;;;;;;5031273;28;20648;-77
2022/11/02 04:56:00;;;;;;;0.60;0.60;;;;;;;;;;5032295;28;20194;-78
2022/11/02 04:58:26;;;;;;;0.70;0.70;;;;;;;;;;5032076;28;20659;-78
2022/11/02 05:00:52;;;;;;;0.70;0.70;;;;;;;;;;5028400;28;20204;-78
2022/11/02 05:03:18;;;;;;;0.60;0.60;;;;;;;;;;5033983;28;20238;-78
2022/11/02 05:05:44;;;;;;;0.60;0.60;;;;;;;;;;5034462;28;20180;-78
2022/11/02 05:08:10;;;;;;;0.60;0.60;;;;;;;;;;5039061;28;20241;-78
2022/11/02 05:10:35;;;;;;;0.60;0.60;;;;;;;;;;5040038;28;20203;-79
2022/11/02 05:13:01;;;;;;;0.70;0.70;;;;;;;;;;5037462;28;20222;-78
2022/11/02 05:15:27;;;;;;;0.70;0.70;;;;;;;;;;5041228;28;20172;-78
2022/11/02 05:17:53;;;;;;;0.67;0.67;;;;;;;;;;5036220;28;20736;-78
2022/11/02 05:20:19;;;;;;;0.80;0.80;;;;;;;;;;5032935;28;20211;-78
2022/11/02 05:22:45;;;;;;;0.70;0.70;;;;;;;;;;5033083;28;20247;-78
2022/11/02 05:25:11;;;;;;;0.70;0.70;;;;;;;;;;5032766;28;20184;-78
2022/11/02 05:27:37;;;;;;;0.70;0.70;;;;;;;;;;5032198;28;20180;-78
2022/11/02 05:30:04;;;;;;;0.50;0.50;;;;;;;;;;5030099;28;20267;-78
2022/11/02 05:32:30;;;;;;;0.70;0.70;;;;;;;;;;5030143;28;20207;-78
2022/11/02 05:34:56;;;;;;;0.60;0.60;;;;;;;;;;5031709;28;20651;-78
2022/11/02 05:37:22;;;;;;;0.60;0.60;;;;;;;;;;5025288;28;20553;-78
2022/11/02 05:39:48;;;;;;;0.60;0.60;;;;;;;;;;5030389;28;20226;-78
2022/11/02 05:42:15;;;;;;;0.63;0.63;;;;;;;;;;5020569;28;20330;-78
2022/11/02 05:44:41;;;;;;;0.63;0.63;;;;;;;;;;5030930;28;20596;-78
2022/11/02 05:47:07;;;;;;;0.60;0.60;;;;;;;;;;5030602;28;20648;-78
2022/11/02 05:49:33;;;;;;;0.67;0.67;;;;;;;;;;5029771;28;20209;-78
2022/11/02 05:51:59;;;;;;;0.60;0.60;;;;;;;;;;5030283;28;20331;-78
2022/11/02 05:54:25;;;;;;;0.63;0.63;;;;;;;;;;5030164;28;20192;-78
2022/11/02 05:56:51;;;;;;;0.70;0.70;;;;;;;;;;5030153;28;20183;-78
2022/11/02 05:59:17;;;;;;;0.70;0.70;;;;;;;;;;5031170;28;20199;-78
2022/11/02 06:01:43;;;;;;;0.70;0.70;;;;;;;;;;5029945;28;20208;-78
2022/11/02 06:04:09;;;;;;;0.60;0.60;;;;;;;;;;5031259;28;20180;-78
2022/11/02 06:06:35;;;;;;;0.70;0.70;;;;;;;;;;5030685;28;20259;-77
2022/11/02 06:09:01;;;;;;;0.70;0.70;;;;;;;;;;5030917;28;20184;-79
2022/11/02 06:11:27;;;;;;;0.70;0.70;;;;;;;;;;5031201;28;20233;-77
2022/11/02 06:13:53;;;;;;;0.60;0.60;;;;;;;;;;5029488;28;20176;-76
2022/11/02 06:16:19;;;;;;;0.70;0.70;;;;;;;;;;5027692;28;20195;-77
2022/11/02 06:18:45;;;;;;;0.60;0.60;;;;;;;;;;5026673;28;20184;-77
2022/11/02 06:21:11;;;;;;;0.60;0.60;;;;;;;;;;5030620;28;20206;-78
2022/11/02 06:23:38;;;;;;;0.60;0.60;;;;;;;;;;5034247;28;20187;-78
2022/11/02 06:26:04;;;;;;;0.60;0.60;;;;;;;;;;5039031;28;20168;-78
2022/11/02 06:28:30;;;;;;;0.70;0.70;;;;;;;;;;5041140;28;20177;-78
2022/11/02 06:30:57;;;;;;;0.70;0.70;;;;;;;;;;5027667;28;20280;-78
2022/11/02 06:33:23;;;;;;;0.70;0.70;;;;;;;;;;5028573;28;20191;-79
2022/11/02 06:35:50;;;;;;;0.60;0.60;;;;;;;;;;5028315;28;20171;-79
2022/11/02 06:38:16;;;;;;;0.60;0.60;;;;;;;;;;5025710;28;20282;-79
2022/11/02 06:40:42;;;;;;;0.63;0.63;;;;;;;;;;5025636;28;20205;-79
2022/11/02 06:43:08;;;;;;;0.67;0.67;;;;;;;;;;5027634;28;20211;-79
2022/11/02 06:45:35;;;;;;;0.70;0.70;;;;;;;;;;5033125;28;20192;-79
2022/11/02 06:48:01;;;;;;;0.70;0.70;;;;;;;;;;5046278;27;20180;-79
2022/11/02 06:50:28;;;;;;;0.70;0.70;;;;;;;;;;5036003;28;20583;-78
2022/11/02 06:52:54;;;;;;;0.70;0.70;;;;;;;;;;5036009;28;20179;-79
2022/11/02 06:55:20;;;;;;;0.70;0.70;;;;;;;;;;5034690;28;20191;-79
2022/11/02 06:57:46;;;;;;;0.70;0.70;;;;;;;;;;5033881;28;20310;-79
2022/11/02 07:00:16;;;;;;;0.60;0.60;;;;;;;;;;5033576;28;20202;-79
2022/11/02 07:02:42;;;;;;;0.70;0.70;;;;;;;;;;5035723;28;20204;-78
2022/11/02 07:05:08;;;;;;;0.50;0.50;;;;;;;;;;5040490;28;20191;-79
2022/11/02 07:07:34;;;;;;;0.50;0.50;;;;;;;;;;5039104;28;20211;-80
2022/11/02 07:10:00;;;;;;;0.50;0.50;;;;;;;;;;5038224;28;20231;-78
2022/11/02 07:12:26;;;;;;;0.50;0.50;;;;;;;;;;5033782;28;20244;-78
2022/11/02 07:14:52;;;;;;;0.50;0.50;;;;;;;;;;5033129;28;20180;-79
2022/11/02 07:17:18;;;;;;;0.50;0.50;;;;;;;;;;5035521;28;20233;-78
2022/11/02 07:19:44;;;;;;;0.57;0.57;;;;;;;;;;5035506;28;20199;-79
2022/11/02 07:22:10;;;;;;;0.57;0.57;;;;;;;;;;5034350;28;20219;-79
2022/11/02 07:24:36;;;;;;;0.47;0.47;;;;;;;;;;5033515;28;20540;-79
2022/11/02 07:27:02;;;;;;;0.57;0.57;;;;;;;;;;5033496;28;20701;-78
2022/11/02 07:29:28;;;;;;;0.47;0.47;;;;;;;;;;5033287;28;20290;-80
2022/11/02 07:31:54;;;;;;;0.50;0.50;;;;;;;;;;5034203;28;20199;-79
2022/11/02 07:34:20;;;;;;;0.50;0.50;;;;;;;;;;5036026;28;20176;-80
2022/11/02 07:36:46;;;;;;;0.50;0.50;;;;;;;;;;5034221;28;20187;-79
2022/11/02 07:39:12;;;;;;;0.40;0.40;;;;;;;;;;5033665;28;20210;-78
2022/11/02 07:41:38;;;;;;;0.47;0.47;;;;;;;;;;5028623;28;20698;-78
2022/11/02 07:44:04;;;;;;;0.60;0.60;;;;;;;;;;5034619;28;20199;-78
2022/11/02 07:46:30;;;;;;;0.50;0.50;;;;;;;;;;5033173;28;20184;-78
2022/11/02 07:48:56;;;;;;;0.50;0.50;;;;;;;;;;5038589;28;20237;-78
2022/11/02 07:51:22;;;;;;;0.33;0.33;;;;;;;;;;5037298;28;20195;-78
2022/11/02 07:53:48;;;;;;;0.50;0.50;;;;;;;;;;5036945;28;20198;-77
2022/11/02 07:56:14;;;;;;;0.40;0.40;;;;;;;;;;5034605;28;20192;-78
2022/11/02 07:58:40;;;;;;;0.40;0.40;;;;;;;;;;5035434;28;20187;-79
2022/11/02 08:01:06;;;;;;;0.40;0.40;;;;;;;;;;5029911;28;20210;-78
2022/11/02 08:03:32;;;;;;;0.40;0.40;;;;;;;;;;5040928;28;20528;-78
2022/11/02 08:06:00;;;;;;;0.40;0.40;;;;;;;;;;5036629;28;20180;-79
2022/11/02 08:08:26;;;;;;;0.40;0.40;;;;;;;;;;5037129;28;20180;-78
2022/11/02 08:10:52;;;;;;;0.40;0.40;;;;;;;;;;5036305;28;20226;-78
2022/11/02 08:13:19;;;;;;;0.47;0.47;;;;;;;;;;5034017;28;20186;-78
2022/11/02 08:15:52;;;;;;;0.43;0.43;;;;;;;;;;5032750;28;20180;-78
2022/11/02 08:18:20;;;;;;;0.40;0.40;;;;;;;;;;5035316;28;20176;-78
2022/11/02 08:20:46;;;;;;;0.50;0.50;;;;;;;;;;5040157;28;20198;-78
2022/11/02 08:23:13;;;;;;;0.43;0.43;;;;;;;;;;5048889;28;20240;-79
2022/11/02 08:25:39;;;;;;;0.50;0.50;;;;;;;;;;5048513;28;20175;-79
2022/11/02 08:28:06;;;;;;;0.50;0.50;;;;;;;;;;5041604;28;20194;-79
2022/11/02 08:30:32;;;;;;;0.40;0.40;;;;;;;;;;5040781;28;20218;-78
2022/11/02 08:33:10;;;;;;;0.40;0.40;;;;;;;;;;5037570;28;20545;-78
2022/11/02 08:35:36;;;;;;;0.40;0.40;;;;;;;;;;5040709;28;20239;-78
2022/11/02 08:38:03;;;;;;;0.40;0.40;;;;;;;;;;5032986;28;20188;-77
2022/11/02 08:40:29;;;;;;;0.50;0.50;;;;;;;;;;5037409;28;20207;-78
2022/11/02 08:42:58;;;;;;;0.43;0.43;;;;;;;;;;5040516;28;20423;-79
2022/11/02 08:45:24;;;;;;;0.30;0.30;;;;;;;;;;5037415;28;20180;-79
2022/11/02 08:47:50;;;;;;;0.40;0.40;;;;;;;;;;5050151;28;20542;-77
2022/11/02 08:50:16;;;;;;;0.50;0.50;;;;;;;;;;5039488;28;20184;-79
2022/11/02 08:52:42;;;;;;;0.40;0.40;;;;;;;;;;5049943;28;20176;-78
2022/11/02 08:55:09;;;;;;;0.40;0.40;;;;;;;;;;5037889;28;20713;-78
2022/11/02 08:57:48;;;;;;;0.40;0.40;;;;;;;;;;5046792;28;20200;-78
2022/11/02 09:00:14;;;;;;;0.40;0.40;;;;;;;;;;5041350;28;20644;-78
2022/11/02 09:02:40;;;;;;;0.40;0.40;;;;;;;;;;5046560;28;20208;-78
2022/11/02 09:05:06;;;;;;;0.50;0.50;;;;;;;;;;5038764;28;20187;-78
2022/11/02 09:07:32;;;;;;;0.50;0.50;;;;;;;;;;5026652;28;20191;-78
2022/11/02 09:09:58;;;;;;;0.50;0.50;;;;;;;;;;5038026;28;20180;-77
2022/11/02 09:12:24;;;;;;;0.50;0.50;;;;;;;;;;5046236;28;20233;-77
2022/11/02 09:14:50;;;;;;;0.50;0.50;;;;;;;;;;5049514;28;20164;-77
2022/11/02 09:17:16;;;;;;;0.40;0.40;;;;;;;;;;5047265;28;20183;-78
2022/11/02 09:19:42;;;;;;;0.40;0.40;;;;;;;;;;5040150;28;20657;-78
2022/11/02 09:22:08;;;;;;;0.50;0.50;;;;;;;;;;5041487;28;20228;-78
2022/11/02 09:24:34;;;;;;;0.50;0.50;;;;;;;;;;5043436;28;20172;-78
2022/11/02 09:27:00;;;;;;;0.50;0.50;;;;;;;;;;5036837;28;20247;-78
2022/11/02 09:29:26;;;;;;;0.40;0.40;;;;;;;;;;5033462;28;20199;-79
2022/11/02 09:31:52;;;;;;;0.50;0.50;;;;;;;;;;5033539;28;20202;-77
2022/11/02 09:34:18;;;;;;;0.50;0.50;;;;;;;;;;5033183;28;20187;-77
2022/11/02 09:36:44;;;;;;;0.50;0.50;;;;;;;;;;5040007;28;20209;-78
2022/11/02 09:39:10;;;;;;;0.30;0.30;;;;;;;;;;5037706;28;20203;-78
2022/11/02 09:41:42;;;;;;;0.50;0.50;;;;;;;;;;5034107;28;20268;-78
2022/11/02 09:44:18;;;;;;;0.50;0.50;;;;;;;;;;5034721;28;20220;-78
2022/11/02 09:46:45;;;;;;;0.40;0.40;;;;;;;;;;5030604;28;20191;-78
2022/11/02 09:49:14;;;;;;;0.60;0.60;;;;;;;;;;5033723;27;20191;-78
2022/11/02 09:51:40;;;;;;;0.63;0.63;;;;;;;;;;5028588;28;20203;-78
2022/11/02 09:54:21;;;;;;;0.40;0.40;;;;;;;;;;5033795;28;20190;-77
2022/11/02 09:56:48;;;;;;;0.40;0.40;;;;;;;;;;5031739;28;20227;-78
2022/11/02 09:59:16;;;;;;;0.50;0.50;;;;;;;;;;5033134;28;20186;-78
2022/11/02 10:02:00;;;;;;;0.40;0.40;;;;;;;;;;5031047;28;20684;-78
2022/11/02 10:04:33;;;;;;;0.43;0.43;;;;;;;;;;5033694;28;20188;-78
2022/11/02 10:07:07;;;;;;;0.50;0.50;;;;;;;;;;5038610;28;20187;-77
2022/11/02 10:09:42;;;;;;;0.53;0.53;;;;;;;;;;5032544;28;20545;-77
2022/11/02 10:12:14;;;;;;;0.40;0.40;;;;;;;;;;5028563;28;20214;-77
2022/11/02 10:14:48;;;;;;;0.50;0.50;;;;;;;;;;5033819;28;20532;-78
2022/11/02 10:17:17;;;;;;;0.50;0.50;;;;;;;;;;5032973;28;20182;-77
2022/11/02 10:19:46;;;;;;;0.60;0.60;;;;;;;;;;5032621;28;20560;-77
2022/11/02 10:22:14;;;;;;;0.60;0.60;;;;;;;;;;5039343;28;20212;-78
2022/11/02 10:24:43;;;;;;;0.40;0.40;;;;;;;;;;5036861;28;20208;-77
2022/11/02 10:27:14;;;;;;;0.57;0.57;;;;;;;;;;5035779;28;20386;-77
2022/11/02 10:29:43;;;;;;;0.40;0.40;;;;;;;;;;5029898;28;20636;-77
2022/11/02 10:32:11;;;;;;;0.30;0.30;;;;;;;;;;5035658;28;20203;-77
2022/11/02 10:34:37;;;;;;;0.47;0.47;;;;;;;;;;5022599;28;20672;-77
2022/11/02 10:37:18;;;;;;;0.40;0.40;;;;;;;;;;5035538;28;20251;-77
2022/11/02 10:39:50;;;;;;;0.50;0.50;;;;;;;;;;5082487;27;20280;-77
2022/11/02 10:42:34;;;;;;;0.50;0.50;;;;;;;;;;5028915;28;20605;-77
2022/11/02 10:45:09;;;;;;;0.40;0.40;;;;;;;;;;5030312;28;20176;-77
2022/11/02 10:47:58;;;;;;;0.40;0.40;;;;;;;;;;5029416;28;20190;-77
2022/11/02 10:50:53;;;;;;;0.40;0.40;;;;;;;;;;5029180;28;20300;-77
2022/11/02 10:53:21;;;;;;;0.53;0.53;;;;;;;;;;5038408;28;20666;-79
2022/11/02 10:55:53;;;;;;;0.40;0.40;;;;;;;;;;5041234;28;20183;-76
2022/11/02 10:58:20;;;;;;;0.50;0.50;;;;;;;;;;5029537;28;20237;-77
2022/11/02 11:00:47;;;;;;;0.40;0.40;;;;;;;;;;5033553;28;20278;-77
2022/11/02 11:03:17;;;;;;;0.43;0.43;;;;;;;;;;5043262;28;20610;-76
2022/11/02 11:05:55;;;;;;;0.50;0.50;;;;;;;;;;5028182;28;20648;-77
2022/11/02 11:08:27;;;;;;;0.30;0.30;;;;;;;;;;5029482;28;20191;-77
2022/11/02 11:10:53;;;;;;;0.40;0.40;;;;;;;;;;5036960;28;20278;-79
2022/11/02 11:13:21;;;;;;;0.60;0.60;;;;;;;;;;5042508;28;20270;-78
2022/11/02 11:15:50;;;;;;;0.37;0.37;;;;;;;;;;5044429;28;20235;-79
2022/11/02 11:18:18;;;;;;;0.40;0.40;;;;;;;;;;5043033;28;20520;-78
2022/11/02 11:20:44;;;;;;;0.53;0.53;;;;;;;;;;5026790;28;20203;-78
2022/11/02 11:23:25;;;;;;;0.50;0.50;;;;;;;;;;5032704;28;20588;-78
2022/11/02 11:26:00;;;;;;;0.40;0.40;;;;;;;;;;5031928;28;20187;-79
2022/11/02 11:28:32;;;;;;;0.40;0.40;;;;;;;;;;5032112;28;20203;-78
2022/11/02 11:31:06;;;;;;;0.50;0.50;;;;;;;;;;5030885;28;20225;-78
2022/11/02 11:33:33;;;;;;;0.47;0.47;;;;;;;;;;5035838;28;20218;-79
2022/11/02 11:35:59;;;;;;;0.50;0.50;;;;;;;;;;5050227;28;20175;-79
2022/11/02 11:38:26;;;;;;;0.50;0.50;;;;;;;;;;5044106;28;20231;-80
2022/11/02 11:40:57;;;;;;;0.40;0.40;;;;;;;;;;5032957;28;20200;-79
2022/11/02 11:43:25;;;;;;;0.50;0.50;;;;;;;;;;5036118;28;20680;-78
2022/11/02 11:45:54;;;;;;;0.47;0.47;;;;;;;;;;5040220;28;20184;-79
2022/11/02 11:48:23;;;;;;;0.50;0.50;;;;;;;;;;5036179;28;20180;-78
2022/11/02 11:50:50;;;;;;;0.40;0.40;;;;;;;;;;5034776;28;20252;-79
2022/11/02 11:53:19;;;;;;;0.40;0.40;;;;;;;;;;5036579;28;20188;-79
2022/11/02 11:55:46;;;;;;;0.40;0.40;;;;;;;;;;5051368;28;20195;-79
2022/11/02 11:58:15;;;;;;;0.40;0.40;;;;;;;;;;5053573;28;20188;-79
2022/11/02 12:00:41;;;;;;;0.37;0.37;;;;;;;;;;5036319;28;20195;-78
2022/11/02 12:03:09;;;;;;;0.30;0.30;;;;;;;;;;5059336;28;20586;-79
2022/11/02 12:05:42;;;;;;;0.37;0.37;;;;;;;;;;5059058;28;20678;-80
2022/11/02 12:08:08;;;;;;;0.40;0.40;;;;;;;;;;5045730;28;20648;-80
2022/11/02 12:10:42;;;;;;;0.40;0.40;;;;;;;;;;5046932;28;20252;-79
2022/11/02 12:13:08;;;;;;;0.33;0.33;;;;;;;;;;5034805;28;20184;-79
2022/11/02 12:15:37;;;;;;;0.30;0.30;;;;;;;;;;5045677;28;20202;-79
2022/11/02 12:18:03;;;;;;;0.40;0.40;;;;;;;;;;5045083;28;20190;-79
2022/11/02 12:20:41;;;;;;;0.40;0.40;;;;;;;;;;5036726;28;20629;-79
2022/11/02 12:23:07;;;;;;;0.40;0.40;;;;;;;;;;5036725;28;20212;-79
2022/11/02 12:25:48;;;;;;;0.27;0.27;;;;;;;;;;5038771;28;20279;-79
2022/11/02 12:28:26;;;;;;;0.37;0.37;;;;;;;;;;5040224;28;20703;-80
2022/11/02 12:31:11;;;;;;;0.50;0.50;;;;;;;;;;5045432;28;20247;-80
2022/11/02 12:33:55;;;;;;;0.30;0.30;;;;;;;;;;5061548;28;20250;-79
2022/11/02 12:36:40;;;;;;;0.30;0.30;;;;;;;;;;5043290;28;20180;-80
2022/11/02 12:39:15;;;;;;;0.47;0.47;;;;;;;;;;5042977;28;20196;-80
2022/11/02 12:42:00;;;;;;;0.50;0.50;;;;;;;;;;5034629;28;20207;-79
2022/11/02 12:44:44;;;;;;;0.50;0.50;;;;;;;;;;5037036;28;20213;-80
2022/11/02 12:47:10;;;;;;;0.40;0.40;;;;;;;;;;5035202;28;20679;-79
2022/11/02 12:49:45;;;;;;;0.50;0.50;;;;;;;;;;5035216;28;20180;-79
2022/11/02 12:52:26;;;;;;;0.50;0.50;;;;;;;;;;5034492;28;20206;-78
2022/11/02 12:55:01;;;;;;;0.40;0.40;;;;;;;;;;5030096;28;20267;-77
2022/11/02 12:57:29;;;;;;;0.37;0.37;;;;;;;;;;5035632;28;20182;-77
2022/11/02 12:59:59;;;;;;;0.40;0.40;;;;;;;;;;5043512;28;20660;-78
2022/11/02 13:02:38;;;;;;;0.40;0.40;;;;;;;;;;5047592;28;20676;-77
2022/11/02 13:05:20;;;;;;;0.40;0.40;;;;;;;;;;5044071;28;20180;-78
2022/11/02 13:07:54;;;;;;;0.40;0.40;;;;;;;;;;5040834;28;20249;-77
2022/11/02 13:10:22;;;;;;;0.43;0.43;;;;;;;;;;5048998;28;20200;-77
2022/11/02 13:12:50;;;;;;;0.30;0.30;;;;;;;;;;5045840;28;20293;-76
2022/11/02 13:15:19;;;;;;;0.40;0.40;;;;;;;;;;5046825;28;20179;-78
2022/11/02 13:17:47;;;;;;;0.40;0.40;;;;;;;;;;5043419;28;20182;-79
2022/11/02 13:20:22;;;;;;;0.40;0.40;;;;;;;;;;5041496;28;20271;-79
2022/11/02 13:22:55;;;;;;;0.50;0.50;;;;;;;;;;5039616;28;20214;-80
2022/11/02 13:25:31;;;;;;;0.40;0.40;;;;;;;;;;5041361;28;20178;-79
2022/11/02 13:27:58;;;;;;;0.40;0.40;;;;;;;;;;5043611;28;20420;-79
2022/11/02 13:30:24;;;;;;;0.60;0.60;;;;;;;;;;5044315;28;20196;-79
2022/11/02 13:32:50;;;;;;;0.40;0.40;;;;;;;;;;5041141;28;20180;-79
2022/11/02 13:35:23;;;;;;;0.40;0.40;;;;;;;;;;5038119;28;20271;-79
2022/11/02 13:37:53;;;;;;;0.40;0.40;;;;;;;;;;5039075;28;20199;-79
2022/11/02 13:40:21;;;;;;;0.47;0.47;;;;;;;;;;5040032;28;20707;-78
2022/11/02 13:42:56;;;;;;;0.33;0.33;;;;;;;;;;5037820;28;20558;-78
2022/11/02 13:45:37;;;;;;;0.50;0.50;;;;;;;;;;5036438;28;20206;-79
2022/11/02 13:48:13;;;;;;;0.30;0.30;;;;;;;;;;5039527;28;20644;-78
2022/11/02 13:50:42;;;;;;;0.30;0.30;;;;;;;;;;5040212;28;20536;-78
2022/11/02 13:53:12;;;;;;;0.30;0.30;;;;;;;;;;5039790;28;20196;-79
2022/11/02 13:55:37;;;;;;;0.30;0.30;;;;;;;;;;5036443;28;20299;-78
2022/11/02 13:58:04;;;;;;;0.30;0.30;;;;;;;;;;5035865;28;20180;-79
2022/11/02 14:00:34;;;;;;;0.30;0.30;;;;;;;;;;5033070;28;20283;-78
2022/11/02 14:03:12;;;;;;;0.40;0.40;;;;;;;;;;5034800;28;20216;-80
2022/11/02 14:05:45;;;;;;;0.30;0.30;;;;;;;;;;5035115;28;20187;-79
2022/11/02 14:08:17;;;;;;;0.40;0.40;;;;;;;;;;5038859;28;20188;-79
2022/11/02 14:10:42;;;;;;;0.47;0.47;;;;;;;;;;5032136;28;20679;-79
2022/11/02 14:13:16;;;;;;;0.40;0.40;;;;;;;;;;5030309;28;20184;-79
2022/11/02 14:15:42;;;;;;;0.30;0.30;;;;;;;;;;5034765;28;20263;-77
2022/11/02 14:18:08;;;;;;;0.30;0.30;;;;;;;;;;5034658;28;20241;-77
2022/11/02 14:20:38;;;;;;;0.30;0.30;;;;;;;;;;5038085;28;20204;-78
2022/11/02 14:23:13;;;;;;;0.40;0.40;;;;;;;;;;5022784;28;20203;-77
2022/11/02 14:25:45;;;;;;;0.30;0.30;;;;;;;;;;5036685;28;20178;-78
2022/11/02 14:28:20;;;;;;;0.40;0.40;;;;;;;;;;5036924;28;20188;-78
2022/11/02 14:30:47;;;;;;;0.40;0.40;;;;;;;;;;5034933;28;20207;-78
2022/11/02 14:33:32;;;;;;;0.50;0.50;;;;;;;;;;5034460;28;20192;-78
2022/11/02 14:36:16;;;;;;;0.30;0.30;;;;;;;;;;5028189;28;20179;-77
2022/11/02 14:38:52;;;;;;;0.30;0.30;;;;;;;;;;5031060;28;20821;-78
2022/11/02 14:41:25;;;;;;;0.40;0.40;;;;;;;;;;5034109;28;20228;-77
2022/11/02 14:44:07;;;;;;;0.30;0.30;;;;;;;;;;5031394;28;20192;-77
2022/11/02 14:46:55;;;;;;;0.30;0.30;;;;;;;;;;5035047;28;20538;-79
2022/11/02 14:49:24;;;;;;;0.27;0.27;;;;;;;;;;5033997;28;20518;-78
2022/11/02 14:51:56;;;;;;;0.30;0.30;;;;;;;;;;5030582;28;20295;-77
2022/11/02 14:54:22;;;;;;;0.30;0.30;;;;;;;;;;5035013;28;20176;-78
2022/11/02 14:56:56;;;;;;;0.40;0.40;;;;;;;;;;5036477;28;20231;-77
2022/11/02 14:59:27;;;;;;;0.30;0.30;;;;;;;;;;5035662;28;20692;-77
2022/11/02 15:01:56;;;;;;;0.30;0.30;;;;;;;;;;5033652;28;20219;-78
2022/11/02 15:04:23;;;;;;;0.40;0.40;;;;;;;;;;5031220;28;20195;-78
2022/11/02 15:06:51;;;;;;;0.30;0.30;;;;;;;;;;5032176;28;20176;-78
2022/11/02 15:09:37;;;;;;;0.40;0.40;;;;;;;;;;5030485;28;20691;-77
2022/11/02 15:12:21;;;;;;;0.40;0.40;;;;;;;;;;5030279;28;20196;-78